Time;durP1;ratioP1;P1;durP2;ratioP2;P2;SDS_P1;SDS_P2;PMS_P1;PMS_P2;Temp;Humidity;BMP_temperature;BMP_pressure;BME280_temperature;BME280_humidity;BME280_pressure;Samples;Min_cycle;Max_cycle;Signal;HPM_P1;HPM_P2
2022/10/27 00:02:47;;;;;;;8.80;3.80;;;;;;;;;;4942370;28;20202;-88
2022/10/27 00:05:51;;;;;;;10.60;3.87;;;;;;;;;;4953100;28;20242;-88
2022/10/27 00:08:55;;;;;;;6.27;3.37;;;;;;;;;;4964314;28;20187;-88
2022/10/27 00:11:59;;;;;;;7.23;3.63;;;;;;;;;;4953523;28;20187;-88
2022/10/27 00:15:04;;;;;;;10.77;3.63;;;;;;;;;;4953617;28;20183;-88
2022/10/27 00:18:10;;;;;;;6.17;3.07;;;;;;;;;;4953048;28;20179;-88
2022/10/27 00:21:17;;;;;;;7.20;3.80;;;;;;;;;;4942068;28;20543;-88
2022/10/27 00:24:21;;;;;;;10.87;3.70;;;;;;;;;;4942145;28;20234;-89
2022/10/27 00:27:26;;;;;;;10.43;4.30;;;;;;;;;;4974590;28;20218;-89
2022/10/27 00:30:31;;;;;;;9.03;3.80;;;;;;;;;;4953009;28;20186;-88
2022/10/27 00:33:36;;;;;;;11.50;3.97;;;;;;;;;;4952687;28;20179;-89
2022/10/27 00:36:40;;;;;;;14.47;3.33;;;;;;;;;;4963789;28;20214;-89
2022/10/27 00:39:45;;;;;;;10.67;2.73;;;;;;;;;;4983081;28;20632;-89
2022/10/27 00:42:49;;;;;;;11.30;3.30;;;;;;;;;;4961095;28;20178;-89
2022/10/27 00:45:57;;;;;;;14.20;3.23;;;;;;;;;;4960791;28;20234;-88
2022/10/27 00:49:13;;;;;;;6.90;3.30;;;;;;;;;;4960470;28;20202;-89
2022/10/27 00:52:26;;;;;;;7.60;2.80;;;;;;;;;;4983378;28;20498;-89
2022/10/27 00:55:33;;;;;;;7.80;3.20;;;;;;;;;;4960955;28;20183;-89
2022/10/27 00:58:38;;;;;;;5.10;3.20;;;;;;;;;;4960796;28;20182;-89
2022/10/27 01:01:43;;;;;;;10.00;3.30;;;;;;;;;;4971814;28;20182;-89
2022/10/27 01:04:54;;;;;;;5.67;3.33;;;;;;;;;;4971738;28;20210;-89
2022/10/27 01:08:01;;;;;;;6.20;3.77;;;;;;;;;;4960343;28;20178;-89
2022/10/27 01:11:05;;;;;;;6.03;3.50;;;;;;;;;;4960781;28;20198;-88
2022/10/27 01:14:10;;;;;;;5.70;3.37;;;;;;;;;;4960656;28;20182;-89
2022/10/27 01:17:33;;;;;;;6.30;3.60;;;;;;;;;;4960185;28;20218;-89
2022/10/27 01:20:58;;;;;;;5.13;3.20;;;;;;;;;;4971829;28;20541;-89
2022/10/27 01:24:33;;;;;;;6.07;3.30;;;;;;;;;;4960479;28;20186;-89
2022/10/27 01:28:09;;;;;;;7.80;3.63;;;;;;;;;;4960647;28;20625;-89
2022/10/27 01:31:21;;;;;;;8.30;3.13;;;;;;;;;;4982713;28;20178;-89
2022/10/27 01:34:34;;;;;;;5.67;3.10;;;;;;;;;;4982280;28;20174;-88
2022/10/27 01:37:59;;;;;;;8.77;3.20;;;;;;;;;;4959928;28;20190;-89
2022/10/27 01:41:14;;;;;;;7.40;3.57;;;;;;;;;;4982240;28;20178;-89
2022/10/27 01:44:22;;;;;;;12.23;3.73;;;;;;;;;;4960424;28;20178;-88
2022/10/27 01:47:27;;;;;;;7.63;3.23;;;;;;;;;;4960211;28;20681;-89
2022/10/27 01:50:34;;;;;;;6.97;3.00;;;;;;;;;;4960324;28;20186;-88
2022/10/27 01:53:50;;;;;;;7.90;3.50;;;;;;;;;;4970941;28;20178;-89
2022/10/27 01:57:21;;;;;;;7.53;3.40;;;;;;;;;;4959831;28;20697;-88
2022/10/27 02:00:25;;;;;;;5.47;3.50;;;;;;;;;;4971745;28;20618;-89
2022/10/27 02:03:38;;;;;;;6.40;2.90;;;;;;;;;;4971002;28;20193;-89
2022/10/27 02:06:58;;;;;;;6.83;3.40;;;;;;;;;;4959889;28;20252;-89
2022/10/27 02:10:16;;;;;;;5.37;3.20;;;;;;;;;;4960423;28;20179;-89
2022/10/27 02:13:21;;;;;;;9.77;4.17;;;;;;;;;;4981807;28;20194;-89
2022/10/27 02:16:33;;;;;;;14.03;4.80;;;;;;;;;;4960377;28;20222;-89
2022/10/27 02:19:39;;;;;;;8.03;4.03;;;;;;;;;;4959937;28;20182;-89
2022/10/27 02:22:54;;;;;;;13.23;5.37;;;;;;;;;;4959498;28;20198;-89
2022/10/27 02:26:06;;;;;;;8.20;4.43;;;;;;;;;;4981786;28;20230;-89
2022/10/27 02:29:35;;;;;;;10.77;5.07;;;;;;;;;;4982020;28;20194;-89
2022/10/27 02:32:45;;;;;;;10.03;4.93;;;;;;;;;;4982385;28;20182;-88
2022/10/27 02:35:53;;;;;;;9.23;4.97;;;;;;;;;;4959669;28;20214;-88
2022/10/27 02:38:57;;;;;;;10.67;5.20;;;;;;;;;;4960205;28;20186;-88
2022/10/27 02:42:03;;;;;;;12.33;5.77;;;;;;;;;;4959818;28;20633;-88
2022/10/27 02:45:33;;;;;;;11.83;5.30;;;;;;;;;;4981702;28;20210;-88
2022/10/27 02:48:36;;;;;;;10.50;4.90;;;;;;;;;;4960392;28;20506;-89
2022/10/27 02:51:40;;;;;;;12.53;4.33;;;;;;;;;;4963135;28;20198;-88
2022/10/27 02:54:47;;;;;;;10.57;4.50;;;;;;;;;;4963087;28;20198;-84
2022/10/27 02:57:51;;;;;;;6.10;4.00;;;;;;;;;;4974573;28;20178;-83
2022/10/27 03:00:55;;;;;;;9.10;4.73;;;;;;;;;;4985477;28;20178;-83
2022/10/27 03:04:00;;;;;;;15.50;5.87;;;;;;;;;;4963569;28;20179;-83
2022/10/27 03:07:04;;;;;;;6.57;4.57;;;;;;;;;;4985035;28;20214;-83
2022/10/27 03:10:08;;;;;;;8.73;4.30;;;;;;;;;;4974128;28;20186;-83
2022/10/27 03:13:12;;;;;;;7.47;4.00;;;;;;;;;;4985324;28;20182;-84
2022/10/27 03:16:16;;;;;;;4.70;3.20;;;;;;;;;;4985121;28;20214;-83
2022/10/27 03:19:20;;;;;;;6.17;3.13;;;;;;;;;;4984806;28;20202;-82
2022/10/27 03:22:24;;;;;;;6.87;2.80;;;;;;;;;;4963663;28;20182;-83
2022/10/27 03:25:29;;;;;;;5.43;2.60;;;;;;;;;;4984853;28;20209;-83
2022/10/27 03:28:36;;;;;;;9.53;3.50;;;;;;;;;;4973980;28;20182;-83
2022/10/27 03:31:41;;;;;;;7.90;2.90;;;;;;;;;;4963547;28;20174;-83
2022/10/27 03:34:45;;;;;;;5.40;2.67;;;;;;;;;;4962592;28;20205;-83
2022/10/27 03:37:57;;;;;;;8.60;2.50;;;;;;;;;;4973877;28;20526;-83
2022/10/27 03:41:01;;;;;;;6.30;2.50;;;;;;;;;;4963031;28;20190;-83
2022/10/27 03:44:05;;;;;;;9.03;2.63;;;;;;;;;;4963175;28;20178;-83
2022/10/27 03:47:09;;;;;;;5.50;2.63;;;;;;;;;;4962280;28;20229;-84
2022/10/27 03:50:13;;;;;;;4.67;2.60;;;;;;;;;;4962334;28;20202;-84
2022/10/27 03:53:18;;;;;;;6.50;2.57;;;;;;;;;;4974130;28;20190;-84
2022/10/27 03:56:22;;;;;;;7.47;2.47;;;;;;;;;;4984748;28;20229;-84
2022/10/27 03:59:26;;;;;;;6.17;2.30;;;;;;;;;;4962946;28;20178;-83
2022/10/27 04:02:30;;;;;;;6.23;2.53;;;;;;;;;;4962478;28;20518;-88
2022/10/27 04:05:52;;;;;;;7.03;2.40;;;;;;;;;;4961415;28;20229;-88
2022/10/27 04:08:57;;;;;;;7.07;2.57;;;;;;;;;;4961599;28;20186;-88
2022/10/27 04:12:04;;;;;;;7.43;3.17;;;;;;;;;;4972943;28;20174;-88
2022/10/27 04:15:14;;;;;;;6.77;3.27;;;;;;;;;;4972436;28;20182;-88
2022/10/27 04:18:19;;;;;;;4.13;2.87;;;;;;;;;;4983733;28;20198;-88
2022/10/27 04:21:23;;;;;;;6.83;3.53;;;;;;;;;;4972134;28;20183;-88
2022/10/27 04:24:28;;;;;;;8.90;3.33;;;;;;;;;;4961226;28;20182;-88
2022/10/27 04:27:32;;;;;;;5.20;2.70;;;;;;;;;;4961269;28;20214;-88
2022/10/27 04:30:37;;;;;;;6.10;2.97;;;;;;;;;;4961327;28;20190;-88
2022/10/27 04:33:41;;;;;;;5.90;2.97;;;;;;;;;;4960996;28;20198;-88
2022/10/27 04:36:45;;;;;;;4.73;2.80;;;;;;;;;;4961408;28;20218;-88
2022/10/27 04:39:49;;;;;;;16.10;3.13;;;;;;;;;;4972457;28;20186;-88
2022/10/27 04:42:53;;;;;;;4.03;3.17;;;;;;;;;;4972130;28;20190;-88
2022/10/27 04:45:57;;;;;;;5.47;3.03;;;;;;;;;;4961060;28;20306;-87
2022/10/27 04:49:05;;;;;;;6.27;2.80;;;;;;;;;;4960671;28;20202;-88
2022/10/27 04:52:09;;;;;;;6.10;3.10;;;;;;;;;;4960939;28;20179;-88
2022/10/27 04:55:13;;;;;;;8.43;2.90;;;;;;;;;;4961071;28;20181;-88
2022/10/27 04:58:17;;;;;;;10.70;3.50;;;;;;;;;;4983026;28;20201;-87
2022/10/27 05:01:22;;;;;;;11.87;4.20;;;;;;;;;;4982332;28;20657;-87
2022/10/27 05:04:26;;;;;;;12.43;3.40;;;;;;;;;;4960635;28;20183;-86
2022/10/27 05:07:31;;;;;;;6.23;3.27;;;;;;;;;;4960562;28;20230;-87
2022/10/27 05:10:45;;;;;;;7.97;3.97;;;;;;;;;;4983001;28;20174;-88
2022/10/27 05:13:50;;;;;;;10.53;3.67;;;;;;;;;;4976800;28;20194;-89
2022/10/27 05:16:54;;;;;;;4.47;3.27;;;;;;;;;;4971257;28;20210;-88
2022/10/27 05:19:58;;;;;;;9.20;3.50;;;;;;;;;;4959679;28;20202;-87
2022/10/27 05:23:03;;;;;;;7.50;3.90;;;;;;;;;;4960571;28;20189;-88
2022/10/27 05:26:06;;;;;;;5.47;3.90;;;;;;;;;;4970908;28;20222;-88
2022/10/27 05:29:10;;;;;;;7.23;3.90;;;;;;;;;;4982573;28;20629;-88
2022/10/27 05:32:15;;;;;;;7.23;3.63;;;;;;;;;;4960530;28;20198;-88
2022/10/27 05:38:22;;;;;;;9.27;3.17;;;;;;;;;;5030594;28;20239;-77
2022/10/27 05:41:26;;;;;;;7.47;2.97;;;;;;;;;;5033136;28;20220;-77
2022/10/27 05:44:31;;;;;;;5.00;3.47;;;;;;;;;;5009776;28;20659;-77
2022/10/27 05:47:35;;;;;;;4.57;3.23;;;;;;;;;;5010143;28;20212;-77
2022/10/27 05:50:39;;;;;;;13.00;5.10;;;;;;;;;;4999250;28;20181;-77
2022/10/27 05:53:43;;;;;;;19.57;6.07;;;;;;;;;;5021446;28;20177;-78
2022/10/27 05:56:48;;;;;;;9.73;5.47;;;;;;;;;;5010163;28;20176;-76
2022/10/27 05:59:52;;;;;;;9.17;5.70;;;;;;;;;;5021152;28;20180;-77
2022/10/27 06:03:01;;;;;;;9.07;5.20;;;;;;;;;;5009629;28;20662;-77
2022/10/27 06:06:05;;;;;;;10.23;3.63;;;;;;;;;;5009178;28;20217;-77
2022/10/27 06:09:09;;;;;;;4.00;3.17;;;;;;;;;;5021038;28;20544;-79
2022/10/27 06:12:13;;;;;;;6.90;2.97;;;;;;;;;;5009403;28;20214;-77
2022/10/27 06:15:18;;;;;;;7.07;2.93;;;;;;;;;;5010184;28;20200;-79
2022/10/27 06:18:22;;;;;;;4.83;3.43;;;;;;;;;;5033790;28;20173;-79
2022/10/27 06:21:26;;;;;;;5.03;3.10;;;;;;;;;;5009839;28;20734;-78
2022/10/27 06:24:30;;;;;;;3.23;2.80;;;;;;;;;;5012209;28;20200;-79
2022/10/27 06:27:34;;;;;;;6.67;3.40;;;;;;;;;;5025212;28;20208;-79
2022/10/27 06:30:38;;;;;;;6.30;3.30;;;;;;;;;;5013918;28;20180;-79
2022/10/27 06:33:43;;;;;;;13.33;3.43;;;;;;;;;;5024932;28;20188;-79
2022/10/27 06:36:47;;;;;;;7.03;4.10;;;;;;;;;;5026014;28;20208;-78
2022/10/27 06:39:54;;;;;;;5.87;3.57;;;;;;;;;;5028589;28;20200;-78
2022/10/27 06:42:58;;;;;;;7.43;3.80;;;;;;;;;;5016826;28;20627;-78
2022/10/27 06:46:02;;;;;;;9.43;5.10;;;;;;;;;;5016642;28;20209;-78
2022/10/27 06:49:06;;;;;;;9.53;4.07;;;;;;;;;;5016766;28;20312;-78
2022/10/27 06:52:11;;;;;;;9.80;4.27;;;;;;;;;;5039671;28;20695;-79
2022/10/27 06:55:15;;;;;;;6.60;4.13;;;;;;;;;;5028895;28;20181;-78
2022/10/27 06:58:19;;;;;;;12.67;6.80;;;;;;;;;;5039887;28;20655;-78
2022/10/27 07:01:23;;;;;;;12.37;7.17;;;;;;;;;;5027397;28;20216;-78
2022/10/27 07:04:27;;;;;;;10.60;6.03;;;;;;;;;;5018600;28;20193;-79
2022/10/27 07:07:32;;;;;;;9.53;6.63;;;;;;;;;;5017937;28;20695;-79
2022/10/27 07:10:36;;;;;;;16.60;6.93;;;;;;;;;;5031720;28;20173;-78
2022/10/27 07:13:40;;;;;;;12.73;5.93;;;;;;;;;;5043002;28;20197;-78
2022/10/27 07:16:45;;;;;;;11.53;6.17;;;;;;;;;;5020828;28;20197;-78
2022/10/27 07:19:49;;;;;;;9.30;5.43;;;;;;;;;;5021131;28;20181;-78
2022/10/27 07:22:53;;;;;;;9.67;6.00;;;;;;;;;;5008487;28;20181;-77
2022/10/27 07:25:57;;;;;;;8.23;4.83;;;;;;;;;;5041462;28;20188;-78
2022/10/27 07:29:01;;;;;;;9.80;6.00;;;;;;;;;;5018107;28;20185;-78
2022/10/27 07:32:06;;;;;;;11.47;7.37;;;;;;;;;;5040166;28;20216;-78
2022/10/27 07:35:10;;;;;;;10.33;6.27;;;;;;;;;;5027953;28;20185;-78
2022/10/27 07:38:15;;;;;;;11.43;6.00;;;;;;;;;;5005633;28;20197;-78
2022/10/27 07:41:20;;;;;;;14.53;6.50;;;;;;;;;;5017539;28;20687;-78
2022/10/27 07:44:24;;;;;;;13.50;5.70;;;;;;;;;;5028226;28;20181;-78
2022/10/27 07:47:28;;;;;;;9.97;6.13;;;;;;;;;;5027768;28;20217;-78
2022/10/27 07:50:33;;;;;;;8.23;5.20;;;;;;;;;;5028692;28;20181;-78
2022/10/27 07:53:37;;;;;;;14.70;6.27;;;;;;;;;;5017389;28;20177;-77
2022/10/27 07:56:41;;;;;;;20.13;6.47;;;;;;;;;;5017628;28;20169;-78
2022/10/27 07:59:45;;;;;;;16.90;6.03;;;;;;;;;;5027772;28;20184;-78
2022/10/27 08:02:49;;;;;;;13.70;5.30;;;;;;;;;;5005708;28;20659;-77
2022/10/27 08:05:54;;;;;;;13.60;4.57;;;;;;;;;;5016863;28;20502;-77
2022/10/27 08:08:58;;;;;;;12.80;5.03;;;;;;;;;;5039538;28;20185;-77
2022/10/27 08:12:02;;;;;;;6.80;4.43;;;;;;;;;;5028325;28;20216;-78
2022/10/27 08:15:08;;;;;;;12.77;6.00;;;;;;;;;;5027727;28;20360;-78
2022/10/27 08:18:13;;;;;;;8.10;5.07;;;;;;;;;;5039675;28;20177;-78
2022/10/27 08:21:18;;;;;;;8.63;4.63;;;;;;;;;;5027037;28;20216;-78
2022/10/27 08:24:22;;;;;;;11.80;5.47;;;;;;;;;;5027037;28;20204;-78
2022/10/27 08:27:26;;;;;;;6.93;4.53;;;;;;;;;;5038685;28;20216;-78
2022/10/27 08:30:32;;;;;;;5.47;3.90;;;;;;;;;;5015742;28;20181;-78
2022/10/27 08:33:36;;;;;;;7.80;3.33;;;;;;;;;;5039273;28;20525;-77
2022/10/27 08:36:41;;;;;;;8.07;2.80;;;;;;;;;;5038977;28;20667;-78
2022/10/27 08:39:45;;;;;;;10.60;3.50;;;;;;;;;;5026597;28;20176;-78
2022/10/27 08:43:13;;;;;;;5.37;2.50;;;;;;;;;;5039010;28;20533;-79
2022/10/27 08:46:27;;;;;;;6.63;2.50;;;;;;;;;;5014693;28;20181;-78
2022/10/27 08:49:40;;;;;;;7.37;2.20;;;;;;;;;;5016794;28;20176;-78
2022/10/27 08:52:51;;;;;;;6.30;2.33;;;;;;;;;;5016316;28;20589;-78
2022/10/27 08:56:09;;;;;;;5.33;2.43;;;;;;;;;;5027976;28;20181;-78
2022/10/27 08:59:24;;;;;;;4.70;2.40;;;;;;;;;;5026591;28;20182;-78
2022/10/27 09:02:46;;;;;;;9.30;2.30;;;;;;;;;;5038209;28;20220;-77
2022/10/27 09:06:23;;;;;;;5.27;2.10;;;;;;;;;;5015631;28;20177;-78
2022/10/27 09:09:45;;;;;;;3.83;2.50;;;;;;;;;;5026179;28;20177;-79
2022/10/27 09:13:14;;;;;;;6.03;2.40;;;;;;;;;;5025233;28;20185;-78
2022/10/27 09:16:36;;;;;;;6.17;2.10;;;;;;;;;;5013756;28;20185;-78
2022/10/27 09:19:45;;;;;;;10.37;2.30;;;;;;;;;;5025340;28;20623;-77
2022/10/27 09:22:51;;;;;;;5.63;2.30;;;;;;;;;;5025276;28;20544;-77
2022/10/27 09:25:57;;;;;;;4.17;2.43;;;;;;;;;;5003167;28;20181;-78
2022/10/27 09:29:11;;;;;;;7.07;2.40;;;;;;;;;;5002837;28;20525;-78
2022/10/27 09:32:22;;;;;;;5.43;2.80;;;;;;;;;;5013638;28;20216;-78
2022/10/27 09:35:30;;;;;;;7.93;3.23;;;;;;;;;;5014435;28;20177;-78
2022/10/27 09:38:36;;;;;;;5.73;2.43;;;;;;;;;;5024773;28;20173;-78
2022/10/27 09:41:40;;;;;;;5.77;2.53;;;;;;;;;;5037866;28;20216;-78
2022/10/27 09:44:52;;;;;;;7.83;2.50;;;;;;;;;;5036971;28;20521;-78
2022/10/27 09:48:02;;;;;;;8.10;2.30;;;;;;;;;;5024309;28;20216;-78
2022/10/27 09:51:25;;;;;;;5.83;2.33;;;;;;;;;;5011024;28;20243;-77
2022/10/27 09:54:35;;;;;;;4.33;2.00;;;;;;;;;;5035589;28;20181;-78
2022/10/27 09:57:41;;;;;;;4.70;2.10;;;;;;;;;;5035037;28;20173;-78
2022/10/27 10:00:56;;;;;;;6.07;2.10;;;;;;;;;;5037923;28;20216;-77
2022/10/27 10:04:06;;;;;;;6.87;2.23;;;;;;;;;;5026654;28;20181;-77
2022/10/27 10:07:28;;;;;;;4.73;2.17;;;;;;;;;;5014746;28;20208;-79
2022/10/27 10:10:32;;;;;;;4.80;2.13;;;;;;;;;;5014567;28;20173;-79
2022/10/27 10:13:37;;;;;;;8.53;2.17;;;;;;;;;;5025517;28;20185;-78
2022/10/27 10:16:44;;;;;;;8.20;2.30;;;;;;;;;;5025751;28;20185;-79
2022/10/27 10:19:49;;;;;;;6.73;2.00;;;;;;;;;;5037898;28;20507;-77
2022/10/27 10:22:54;;;;;;;6.00;2.17;;;;;;;;;;5014942;28;20184;-79
2022/10/27 10:26:00;;;;;;;8.07;2.27;;;;;;;;;;5025786;28;20526;-79
2022/10/27 10:29:07;;;;;;;5.77;1.97;;;;;;;;;;5015259;28;20213;-79
2022/10/27 10:32:18;;;;;;;9.70;2.27;;;;;;;;;;5025321;28;20218;-79
2022/10/27 10:35:47;;;;;;;7.47;2.40;;;;;;;;;;5003305;28;20191;-79
2022/10/27 10:38:56;;;;;;;6.20;1.90;;;;;;;;;;5002897;28;20170;-77
2022/10/27 10:42:14;;;;;;;5.33;1.77;;;;;;;;;;5037227;28;20214;-79
2022/10/27 10:45:25;;;;;;;6.03;2.30;;;;;;;;;;5038984;28;20189;-79
2022/10/27 10:48:35;;;;;;;4.27;2.00;;;;;;;;;;5016478;28;20216;-79
2022/10/27 10:51:38;;;;;;;4.57;2.23;;;;;;;;;;5016320;28;20217;-79
2022/10/27 10:54:43;;;;;;;8.20;2.27;;;;;;;;;;5027320;28;20186;-78
2022/10/27 10:57:51;;;;;;;4.73;1.90;;;;;;;;;;5026635;28;20532;-78
2022/10/27 11:00:58;;;;;;;10.40;2.47;;;;;;;;;;5027327;28;20563;-77
2022/10/27 11:04:03;;;;;;;9.83;2.23;;;;;;;;;;5015767;28;20519;-79
2022/10/27 11:07:26;;;;;;;6.17;1.90;;;;;;;;;;5016201;28;20190;-78
2022/10/27 11:10:34;;;;;;;6.77;2.17;;;;;;;;;;5003893;28;20181;-77
2022/10/27 11:13:45;;;;;;;8.53;1.90;;;;;;;;;;5039025;28;20636;-78
2022/10/27 11:16:54;;;;;;;4.63;2.10;;;;;;;;;;5026875;28;20650;-79
2022/10/27 11:20:02;;;;;;;12.13;2.37;;;;;;;;;;5015754;28;20181;-79
2022/10/27 11:23:34;;;;;;;6.07;2.07;;;;;;;;;;5015965;28;20185;-79
2022/10/27 11:26:56;;;;;;;5.60;2.13;;;;;;;;;;5014968;28;20185;-79
2022/10/27 11:30:03;;;;;;;7.30;2.13;;;;;;;;;;5015355;28;20640;-77
2022/10/27 11:33:30;;;;;;;4.83;1.93;;;;;;;;;;5026447;28;20189;-78
2022/10/27 11:36:46;;;;;;;5.90;2.10;;;;;;;;;;5015546;28;20660;-77
2022/10/27 11:40:21;;;;;;;4.77;1.90;;;;;;;;;;5027068;28;20189;-79
2022/10/27 11:43:33;;;;;;;10.73;2.20;;;;;;;;;;5004961;28;20189;-78
2022/10/27 11:46:44;;;;;;;8.00;2.13;;;;;;;;;;5015629;28;20181;-79
2022/10/27 11:49:58;;;;;;;6.17;2.10;;;;;;;;;;5026703;28;20173;-77
2022/10/27 11:53:02;;;;;;;7.73;2.13;;;;;;;;;;5026876;28;20196;-79
2022/10/27 11:56:46;;;;;;;5.83;2.27;;;;;;;;;;5015477;28;20177;-78
2022/10/27 12:00:03;;;;;;;4.97;1.90;;;;;;;;;;5000221;28;20193;-79
2022/10/27 12:03:39;;;;;;;8.40;2.40;;;;;;;;;;5027479;28;20185;-79
2022/10/27 12:07:08;;;;;;;7.23;2.40;;;;;;;;;;5039102;28;20181;-80
2022/10/27 12:10:23;;;;;;;7.10;2.40;;;;;;;;;;5015686;28;20177;-78
2022/10/27 12:13:57;;;;;;;5.00;1.93;;;;;;;;;;5031174;23;20233;-76
2022/10/27 12:17:04;;;;;;;7.63;2.33;;;;;;;;;;5015026;28;20186;-76
2022/10/27 12:20:14;;;;;;;5.20;2.20;;;;;;;;;;5002884;28;20177;-76
2022/10/27 12:23:29;;;;;;;6.37;2.47;;;;;;;;;;4994610;28;20187;-76
2022/10/27 12:26:45;;;;;;;5.47;2.33;;;;;;;;;;4994668;28;20191;-75
2022/10/27 12:29:54;;;;;;;7.03;2.13;;;;;;;;;;4983032;28;20175;-75
2022/10/27 12:33:21;;;;;;;7.00;1.80;;;;;;;;;;4972140;28;20193;-76
2022/10/27 12:36:57;;;;;;;6.53;1.77;;;;;;;;;;4994758;28;20648;-76
2022/10/27 12:40:23;;;;;;;6.27;2.07;;;;;;;;;;4972414;28;20183;-76
2022/10/27 12:43:30;;;;;;;4.70;1.60;;;;;;;;;;4994870;28;20523;-76
2022/10/27 12:46:42;;;;;;;5.97;2.00;;;;;;;;;;4993805;28;20200;-76
2022/10/27 12:50:19;;;;;;;6.10;2.17;;;;;;;;;;4994724;28;20228;-76
2022/10/27 12:53:51;;;;;;;6.40;1.83;;;;;;;;;;4982722;28;20190;-76
2022/10/27 12:57:17;;;;;;;7.53;1.90;;;;;;;;;;4982540;28;20174;-76
2022/10/27 13:00:23;;;;;;;4.20;1.60;;;;;;;;;;4982949;28;20657;-76
2022/10/27 13:03:49;;;;;;;4.40;1.80;;;;;;;;;;4971571;28;20179;-76
2022/10/27 13:07:08;;;;;;;8.43;1.60;;;;;;;;;;4994500;28;20193;-76
2022/10/27 13:10:31;;;;;;;4.17;1.77;;;;;;;;;;4971516;28;20177;-76
2022/10/27 13:14:05;;;;;;;6.20;1.80;;;;;;;;;;4982556;28;20204;-76
2022/10/27 13:17:34;;;;;;;8.13;2.00;;;;;;;;;;4988110;28;20184;-76
2022/10/27 13:20:47;;;;;;;4.33;1.60;;;;;;;;;;4982595;28;20179;-76
2022/10/27 13:24:07;;;;;;;5.73;2.17;;;;;;;;;;4982010;28;20187;-76
2022/10/27 13:27:29;;;;;;;5.63;1.60;;;;;;;;;;4971215;28;20183;-76
2022/10/27 13:30:37;;;;;;;6.87;2.00;;;;;;;;;;4971070;28;20174;-76
2022/10/27 13:34:00;;;;;;;4.37;1.90;;;;;;;;;;4981659;28;20185;-77
2022/10/27 13:37:36;;;;;;;4.43;1.70;;;;;;;;;;4994250;28;20183;-76
2022/10/27 13:40:40;;;;;;;4.10;2.00;;;;;;;;;;4994261;28;20186;-76
2022/10/27 13:43:46;;;;;;;4.30;1.63;;;;;;;;;;4982147;28;20180;-76
2022/10/27 13:47:02;;;;;;;8.97;2.20;;;;;;;;;;4963629;28;20201;-76
2022/10/27 13:50:30;;;;;;;5.53;2.40;;;;;;;;;;4974261;28;20228;-76
2022/10/27 13:53:35;;;;;;;5.53;2.30;;;;;;;;;;4974613;28;20541;-76
2022/10/27 13:56:39;;;;;;;10.77;2.47;;;;;;;;;;4962605;28;20186;-76
2022/10/27 13:59:44;;;;;;;5.73;1.70;;;;;;;;;;4962246;28;20544;-76
2022/10/27 14:03:09;;;;;;;6.67;2.10;;;;;;;;;;4962581;28;20196;-76
2022/10/27 14:06:13;;;;;;;6.33;2.30;;;;;;;;;;4964684;28;20204;-76
2022/10/27 14:09:32;;;;;;;7.10;1.93;;;;;;;;;;4951429;28;20207;-76
2022/10/27 14:12:36;;;;;;;4.77;2.07;;;;;;;;;;4973691;28;20227;-76
2022/10/27 14:15:41;;;;;;;5.17;2.20;;;;;;;;;;4970963;28;20179;-76
2022/10/27 14:18:56;;;;;;;8.73;2.50;;;;;;;;;;4993750;28;20178;-76
2022/10/27 14:22:00;;;;;;;8.37;2.00;;;;;;;;;;4981368;28;20210;-76
2022/10/27 14:25:14;;;;;;;9.77;2.20;;;;;;;;;;4993718;28;20179;-76
2022/10/27 14:28:22;;;;;;;9.00;2.57;;;;;;;;;;4981391;28;20206;-76
2022/10/27 14:31:29;;;;;;;7.47;2.33;;;;;;;;;;4970326;28;20215;-76
2022/10/27 14:34:33;;;;;;;9.57;2.10;;;;;;;;;;4981832;28;20186;-76
2022/10/27 14:37:38;;;;;;;4.97;2.13;;;;;;;;;;4993503;28;20178;-75
2022/10/27 14:40:42;;;;;;;4.73;2.00;;;;;;;;;;4981304;28;20221;-76
2022/10/27 14:43:50;;;;;;;5.57;2.10;;;;;;;;;;4993564;28;20206;-76
2022/10/27 14:47:15;;;;;;;5.57;2.00;;;;;;;;;;4984892;28;20194;-75
2022/10/27 14:50:30;;;;;;;5.83;1.97;;;;;;;;;;4985264;28;20214;-75
2022/10/27 14:53:35;;;;;;;7.17;2.57;;;;;;;;;;4985029;28;20179;-75
2022/10/27 14:56:39;;;;;;;6.70;2.60;;;;;;;;;;4985138;28;20178;-76
2022/10/27 14:59:44;;;;;;;7.07;2.43;;;;;;;;;;4984618;28;20193;-76
2022/10/27 15:02:49;;;;;;;9.67;4.40;;;;;;;;;;4996689;28;20206;-76
2022/10/27 15:05:53;;;;;;;8.83;2.60;;;;;;;;;;4984642;28;20186;-76
2022/10/27 15:08:58;;;;;;;10.00;2.50;;;;;;;;;;4996582;28;20684;-75
2022/10/27 15:12:30;;;;;;;8.07;2.20;;;;;;;;;;4996569;28;20221;-76
2022/10/27 15:15:40;;;;;;;9.97;2.20;;;;;;;;;;4984627;28;20186;-75
2022/10/27 15:18:45;;;;;;;6.33;2.10;;;;;;;;;;4984844;28;20522;-76
2022/10/27 15:21:51;;;;;;;7.23;2.23;;;;;;;;;;4984628;28;20558;-76
2022/10/27 15:24:57;;;;;;;3.80;2.10;;;;;;;;;;4984441;28;20183;-75
2022/10/27 15:28:01;;;;;;;5.73;2.20;;;;;;;;;;4973283;28;20174;-75
2022/10/27 15:31:08;;;;;;;5.23;2.20;;;;;;;;;;4995168;28;20218;-75
2022/10/27 15:34:32;;;;;;;5.93;2.30;;;;;;;;;;4995374;28;20201;-75
2022/10/27 15:37:36;;;;;;;6.13;2.53;;;;;;;;;;4983971;28;20183;-75
2022/10/27 15:40:43;;;;;;;5.27;2.37;;;;;;;;;;4984150;28;20183;-75
2022/10/27 15:43:50;;;;;;;5.80;2.27;;;;;;;;;;4984060;28;20178;-75
2022/10/27 15:46:54;;;;;;;9.53;2.20;;;;;;;;;;4984408;28;20182;-75
2022/10/27 15:49:58;;;;;;;7.57;2.43;;;;;;;;;;4983692;28;20206;-75
2022/10/27 15:53:15;;;;;;;6.10;1.73;;;;;;;;;;4984295;28;20526;-75
2022/10/27 15:56:31;;;;;;;5.60;2.20;;;;;;;;;;4995542;28;20182;-75
2022/10/27 15:59:35;;;;;;;9.40;2.20;;;;;;;;;;4983861;28;20182;-75
2022/10/27 16:02:51;;;;;;;17.93;3.00;;;;;;;;;;4983330;28;20226;-75
2022/10/27 16:06:17;;;;;;;5.93;2.00;;;;;;;;;;4983464;28;20186;-75
2022/10/27 16:09:36;;;;;;;4.77;2.37;;;;;;;;;;4995639;28;20206;-75
2022/10/27 16:12:42;;;;;;;5.53;2.43;;;;;;;;;;4994534;28;20222;-76
2022/10/27 16:15:47;;;;;;;4.93;2.10;;;;;;;;;;4983404;28;20651;-75
2022/10/27 16:18:52;;;;;;;5.33;2.23;;;;;;;;;;4983781;28;20174;-77
2022/10/27 16:21:56;;;;;;;8.27;2.30;;;;;;;;;;4983540;28;20213;-75
2022/10/27 16:25:00;;;;;;;8.20;2.53;;;;;;;;;;4995185;28;20182;-76
2022/10/27 16:28:20;;;;;;;8.87;2.57;;;;;;;;;;4995201;28;20186;-75
2022/10/27 16:31:26;;;;;;;8.77;3.10;;;;;;;;;;4983166;28;20211;-75
2022/10/27 16:34:30;;;;;;;7.63;2.50;;;;;;;;;;4982901;28;20193;-75
2022/10/27 16:37:35;;;;;;;5.37;2.40;;;;;;;;;;4964703;28;20202;-75
2022/10/27 16:40:41;;;;;;;9.37;2.80;;;;;;;;;;4963836;28;20614;-75
2022/10/27 16:43:45;;;;;;;10.73;2.30;;;;;;;;;;4963970;28;20182;-75
2022/10/27 16:46:49;;;;;;;11.00;2.83;;;;;;;;;;4953002;28;20187;-75
2022/10/27 16:49:55;;;;;;;6.63;2.63;;;;;;;;;;4970402;28;20222;-75
2022/10/27 16:53:00;;;;;;;5.73;2.90;;;;;;;;;;4982565;28;20175;-75
2022/10/27 16:56:06;;;;;;;9.30;3.07;;;;;;;;;;4994804;28;20240;-75
2022/10/27 16:59:10;;;;;;;10.23;2.57;;;;;;;;;;4994668;28;20178;-75
2022/10/27 17:02:14;;;;;;;7.50;2.93;;;;;;;;;;4982643;28;20225;-76
2022/10/27 17:05:18;;;;;;;6.17;3.00;;;;;;;;;;4982692;28;20249;-75
2022/10/27 17:08:22;;;;;;;8.07;3.00;;;;;;;;;;4982738;28;20182;-76
2022/10/27 17:11:26;;;;;;;5.13;2.87;;;;;;;;;;4982513;28;20209;-75
2022/10/27 17:14:32;;;;;;;6.13;2.60;;;;;;;;;;4971008;28;20201;-75
2022/10/27 17:17:36;;;;;;;6.63;2.93;;;;;;;;;;4994385;28;20175;-75
2022/10/27 17:20:41;;;;;;;9.13;3.20;;;;;;;;;;4982381;28;20170;-76
2022/10/27 17:23:45;;;;;;;9.83;2.70;;;;;;;;;;4984126;28;20206;-78
2022/10/27 17:26:49;;;;;;;7.10;3.10;;;;;;;;;;4972145;28;20197;-78
2022/10/27 17:29:53;;;;;;;6.13;2.77;;;;;;;;;;4973643;28;20210;-77
2022/10/27 17:32:57;;;;;;;7.50;3.20;;;;;;;;;;4983053;28;20174;-80
2022/10/27 17:36:04;;;;;;;9.70;3.50;;;;;;;;;;4984177;28;20182;-78
2022/10/27 17:39:08;;;;;;;8.03;3.00;;;;;;;;;;4962186;28;20174;-77
2022/10/27 17:42:13;;;;;;;6.53;2.80;;;;;;;;;;4972961;28;20673;-77
2022/10/27 17:45:17;;;;;;;8.33;2.50;;;;;;;;;;4971851;28;20609;-78
2022/10/27 17:48:21;;;;;;;6.17;3.33;;;;;;;;;;4982644;28;20182;-77
2022/10/27 17:51:30;;;;;;;13.47;4.67;;;;;;;;;;4982266;28;20210;-77
2022/10/27 17:54:37;;;;;;;6.83;4.13;;;;;;;;;;4982285;28;20186;-77
2022/10/27 17:57:41;;;;;;;15.47;4.23;;;;;;;;;;4982451;28;20182;-77
2022/10/27 18:00:45;;;;;;;8.57;3.73;;;;;;;;;;4982420;28;20217;-78
2022/10/27 18:03:52;;;;;;;13.07;3.77;;;;;;;;;;4982040;28;20182;-77
2022/10/27 18:06:58;;;;;;;8.87;4.10;;;;;;;;;;4970653;28;20202;-77
2022/10/27 18:10:02;;;;;;;7.70;3.97;;;;;;;;;;4982006;28;20230;-77
2022/10/27 18:13:06;;;;;;;13.50;4.37;;;;;;;;;;4981833;28;20202;-77
2022/10/27 18:16:23;;;;;;;9.60;3.70;;;;;;;;;;4959818;28;20190;-77
2022/10/27 18:19:28;;;;;;;8.83;3.80;;;;;;;;;;4981965;28;20190;-77
2022/10/27 18:22:32;;;;;;;11.43;3.30;;;;;;;;;;4974124;28;20222;-76
2022/10/27 18:25:36;;;;;;;9.50;3.43;;;;;;;;;;4974241;28;20514;-77
2022/10/27 18:28:46;;;;;;;9.27;3.17;;;;;;;;;;4985045;28;20186;-76
2022/10/27 18:31:50;;;;;;;8.30;3.77;;;;;;;;;;4985089;28;20225;-76
2022/10/27 18:34:54;;;;;;;10.83;3.37;;;;;;;;;;4974132;28;20183;-76
2022/10/27 18:37:58;;;;;;;8.80;3.30;;;;;;;;;;4974341;28;20178;-77
2022/10/27 18:41:05;;;;;;;11.37;4.13;;;;;;;;;;4997628;28;20210;-77
2022/10/27 18:44:09;;;;;;;9.60;3.93;;;;;;;;;;4985652;28;20522;-77
2022/10/27 18:47:14;;;;;;;10.13;5.40;;;;;;;;;;4985369;28;20182;-77
2022/10/27 18:50:19;;;;;;;15.83;6.47;;;;;;;;;;4985454;28;20214;-77
2022/10/27 18:53:24;;;;;;;12.63;6.33;;;;;;;;;;4974055;28;20187;-77
2022/10/27 18:56:29;;;;;;;10.20;4.87;;;;;;;;;;4985100;28;20198;-77